KTHA/THA METAR and TAF weather

Enter ICAO airport designator
Station Type Date Time Source
KTHA METAR 2020/03/31 05:55 UTC NOAA

KTHA 310555Z AUTO 34003KT 10SM FEW047 BKN060 OVC070 12/05 A3001 RMK A01


Station Type Date Time Source
KTHA Decoded METAR 2020/03/31 05:55 UTC NOAA

Station name not available
Mar 31, 2020 - 01:55 AM EDT / 2020.03.31 0555 UTC
Wind: from the NNW (340 degrees) at 3 MPH (3 KT):0
Visibility: 10 mile(s):0
Sky conditions: overcast
Temperature: 53 F (12 C)
Dew Point: 41 F (5 C)
Relative Humidity: 62%
Pressure (altimeter): 30.01 in. Hg (1016 hPa)
ob: KTHA 310555Z AUTO 34003KT 10SM FEW047 BKN060 OVC070 12/05 A3001 RMK A01
cycle: 6

Station Type Date Time Source
KTHA TAF UTC NOAA

Error!

Example: see airport list